Time;durP1;ratioP1;P1;durP2;ratioP2;P2;SDS_P1;SDS_P2;PMS_P1;PMS_P2;Temp;Humidity;BMP_temperature;BMP_pressure;BME280_temperature;BME280_humidity;BME280_pressure;Samples;Min_cycle;Max_cycle;Signal;HPM_P1;HPM_P2
2022/08/01 00:01:52;;;;;;;4.67;2.33;;;;;;;13.88;100.00;96385.20;1646722;85;20982;-85
2022/08/01 00:04:18;;;;;;;5.30;3.25;;;;;;;13.89;100.00;96382.38;1654016;85;21013;-85
2022/08/01 00:06:43;;;;;;;5.55;2.58;;;;;;;13.89;100.00;96380.27;1656606;85;21036;-86
2022/08/01 00:09:09;;;;;;;6.67;2.90;;;;;;;13.88;100.00;96371.63;1652675;85;21423;-84
2022/08/01 00:11:35;;;;;;;4.17;2.70;;;;;;;13.89;100.00;96375.85;1652350;85;21128;-84
2022/08/01 00:14:01;;;;;;;3.90;2.85;;;;;;;13.90;100.00;96372.73;1653212;85;20985;-85
2022/08/01 00:16:27;;;;;;;4.30;2.77;;;;;;;13.90;100.00;96363.59;1656444;85;20950;-86
2022/08/01 00:18:52;;;;;;;4.60;3.55;;;;;;;13.90;100.00;96361.78;1653934;85;21077;-85
2022/08/01 00:21:18;;;;;;;3.65;2.65;;;;;;;13.90;100.00;96369.62;1655009;85;21033;-86
2022/08/01 00:23:45;;;;;;;4.28;2.70;;;;;;;13.91;100.00;96365.20;1659055;85;21061;-85
2022/08/01 00:26:12;;;;;;;3.50;2.85;;;;;;;13.90;100.00;96366.20;1653101;85;21005;-83
2022/08/01 00:28:40;;;;;;;3.65;2.60;;;;;;;13.88;100.00;96362.49;1631321;85;21889;-85
2022/08/01 00:31:06;;;;;;;5.37;2.70;;;;;;;13.89;100.00;96368.52;1653832;85;20997;-86
2022/08/01 00:33:32;;;;;;;5.00;3.00;;;;;;;13.88;100.00;96364.30;1655012;85;21116;-86
2022/08/01 00:35:58;;;;;;;4.95;2.70;;;;;;;13.87;100.00;96365.31;1635783;85;21459;-86
2022/08/01 00:38:23;;;;;;;4.30;2.50;;;;;;;13.83;100.00;96362.30;1658653;85;21083;-85
2022/08/01 00:40:49;;;;;;;3.67;2.87;;;;;;;13.84;100.00;96357.88;1660599;85;21056;-86
2022/08/01 00:43:15;;;;;;;3.75;2.80;;;;;;;13.84;100.00;96369.64;1656821;85;21011;-86
2022/08/01 00:45:41;;;;;;;7.15;3.12;;;;;;;13.86;100.00;96365.81;1655364;85;20996;-86
2022/08/01 00:48:07;;;;;;;6.92;2.80;;;;;;;13.87;100.00;96366.61;1657043;85;21349;-85
2022/08/01 00:50:32;;;;;;;4.28;2.87;;;;;;;13.83;100.00;96361.00;1675123;84;21075;-84
2022/08/01 00:52:59;;;;;;;5.85;3.05;;;;;;;13.84;100.00;96370.94;1678082;83;21372;-86
2022/08/01 00:55:26;;;;;;;3.80;2.80;;;;;;;13.80;100.00;96366.09;1676914;84;21021;-84
2022/08/01 00:57:51;;;;;;;5.10;2.98;;;;;;;13.79;100.00;96361.08;1656276;84;21578;-85
2022/08/01 01:00:17;;;;;;;4.97;2.85;;;;;;;13.77;100.00;96363.89;1676899;84;21014;-83
2022/08/01 01:02:43;;;;;;;4.30;2.85;;;;;;;13.78;100.00;96358.17;1675757;84;21023;-84
2022/08/01 01:05:09;;;;;;;4.80;2.80;;;;;;;13.79;100.00;96362.39;1678696;83;21524;-85
2022/08/01 01:07:46;;;;;;;4.10;2.67;;;;;;;13.78;100.00;96364.20;1677785;84;21071;-84
2022/08/01 01:10:30;;;;;;;4.70;2.72;;;;;;;13.78;100.00;96373.84;1674716;84;21124;-85
2022/08/01 01:13:04;;;;;;;3.70;2.50;;;;;;;13.77;100.00;96374.84;1680265;83;20978;-86
2022/08/01 01:15:47;;;;;;;4.30;2.60;;;;;;;13.76;100.00;96372.73;1681382;84;21048;-85
2022/08/01 01:18:18;;;;;;;4.78;2.55;;;;;;;13.67;100.00;96364.02;1677331;84;21437;-85
2022/08/01 01:20:48;;;;;;;7.37;2.95;;;;;;;13.74;100.00;96372.64;1677660;83;21066;-85
2022/08/01 01:23:31;;;;;;;5.92;2.95;;;;;;;13.72;100.00;96367.63;1645970;85;21117;-85
2022/08/01 01:26:31;;;;;;;3.12;2.77;;;;;;;13.74;100.00;96370.03;1637194;86;20992;-85
2022/08/01 01:29:13;;;;;;;3.77;2.47;;;;;;;13.72;100.00;96370.73;1635916;85;21085;-85
2022/08/01 01:31:49;;;;;;;4.15;2.70;;;;;;;13.72;100.00;96368.93;1649576;85;21022;-85
2022/08/01 01:34:17;;;;;;;6.67;2.60;;;;;;;13.72;100.00;96366.82;1643591;86;20974;-84
2022/08/01 01:36:43;;;;;;;6.70;3.35;;;;;;;13.71;100.00;96367.83;1643297;85;21425;-85
2022/08/01 01:39:09;;;;;;;6.00;2.65;;;;;;;13.71;100.00;96367.83;1641225;85;21014;-84
2022/08/01 01:41:36;;;;;;;4.75;2.40;;;;;;;13.70;100.00;96362.30;1639575;85;21068;-85
2022/08/01 01:44:02;;;;;;;9.30;2.87;;;;;;;13.68;100.00;96362.52;1641812;85;21082;-85
2022/08/01 01:46:28;;;;;;;5.15;2.47;;;;;;;13.68;100.00;96361.70;1609537;87;21015;-85
2022/08/01 01:48:54;;;;;;;4.95;2.75;;;;;;;13.67;100.00;96364.82;1678393;84;21467;-85
2022/08/01 01:51:22;;;;;;;4.10;2.83;;;;;;;13.67;100.00;96360.10;1646936;85;20981;-85
2022/08/01 01:53:49;;;;;;;7.12;3.05;;;;;;;13.68;100.00;96358.59;1634496;86;21055;-84
2022/08/01 01:56:15;;;;;;;4.92;2.65;;;;;;;13.68;100.00;96361.20;1620508;87;21042;-86
2022/08/01 01:58:41;;;;;;;4.30;2.65;;;;;;;13.68;100.00;96358.59;1631957;86;21027;-86
2022/08/01 02:01:06;;;;;;;6.00;2.52;;;;;;;13.67;100.00;96356.98;1679191;83;20963;-85
2022/08/01 02:03:32;;;;;;;3.58;2.55;;;;;;;13.67;100.00;96359.59;1676798;83;21007;-84
2022/08/01 02:05:58;;;;;;;3.70;2.37;;;;;;;13.65;100.00;96351.14;1679202;83;21115;-84
2022/08/01 02:08:23;;;;;;;4.90;2.50;;;;;;;13.65;100.00;96345.91;1677175;84;21110;-83
2022/08/01 02:13:37;;;;;;;3.20;2.50;;;;;;;13.61;100.00;96338.19;1678898;84;21007;-85
2022/08/01 02:16:03;;;;;;;4.60;2.60;;;;;;;13.62;100.00;96341.10;1678534;84;21033;-86
2022/08/01 02:18:29;;;;;;;2.95;2.40;;;;;;;13.62;100.00;96342.41;1677112;84;21073;-85
2022/08/01 02:20:55;;;;;;;5.92;2.67;;;;;;;13.60;100.00;96339.20;1679318;84;21092;-84
2022/08/01 02:23:21;;;;;;;4.40;2.30;;;;;;;13.58;100.00;96342.52;1677785;83;21032;-85
2022/08/01 02:25:52;;;;;;;5.17;2.33;;;;;;;13.58;100.00;96337.30;1676619;84;22120;-85
2022/08/01 02:28:31;;;;;;;3.47;2.35;;;;;;;13.57;100.00;96338.30;1682777;84;21071;-85
2022/08/01 02:31:01;;;;;;;4.17;2.85;;;;;;;13.56;100.00;96341.92;1680368;84;21434;-84
2022/08/01 02:33:39;;;;;;;5.12;2.62;;;;;;;13.57;100.00;96336.20;1677924;84;21491;-84
2022/08/01 02:36:05;;;;;;;5.92;2.52;;;;;;;13.55;100.00;96335.09;1675938;83;21029;-85
2022/08/01 02:38:35;;;;;;;4.35;2.40;;;;;;;13.55;100.00;96336.91;1636807;83;21109;-85
2022/08/01 02:41:05;;;;;;;4.08;2.35;;;;;;;13.54;100.00;96336.60;1676616;84;20996;-85
2022/08/01 02:43:31;;;;;;;4.17;2.45;;;;;;;13.53;100.00;96333.19;1677381;84;21400;-85
2022/08/01 02:46:00;;;;;;;3.35;1.80;;;;;;;13.53;100.00;96335.00;1677911;84;20991;-84
2022/08/01 02:48:29;;;;;;;5.20;2.30;;;;;;;13.53;100.00;96335.80;1675942;83;21047;-85
2022/08/01 02:50:57;;;;;;;4.25;2.12;;;;;;;13.52;100.00;96344.64;1675364;84;21126;-85
2022/08/01 02:53:24;;;;;;;3.67;2.25;;;;;;;13.54;100.00;96340.52;1679586;84;21490;-84
2022/08/01 02:55:50;;;;;;;7.92;2.20;;;;;;;13.54;100.00;96341.32;1679407;84;21108;-85
2022/08/01 02:58:16;;;;;;;4.37;1.90;;;;;;;13.53;100.00;96341.02;1679229;84;22006;-85
2022/08/01 03:00:43;;;;;;;2.70;1.90;;;;;;;13.53;100.00;96341.52;1678498;84;20964;-85
2022/08/01 03:03:08;;;;;;;2.20;1.90;;;;;;;13.51;100.00;96336.51;1678801;83;21495;-86
2022/08/01 03:05:35;;;;;;;3.08;1.92;;;;;;;13.48;100.00;96344.21;1674410;84;21016;-86
2022/08/01 03:08:00;;;;;;;4.17;1.80;;;;;;;13.47;100.00;96343.11;1678167;83;21055;-84
2022/08/01 03:10:27;;;;;;;5.08;1.80;;;;;;;13.46;100.00;96342.81;1679342;84;21456;-84
2022/08/01 03:12:53;;;;;;;3.87;2.02;;;;;;;13.46;100.00;96339.70;1678887;83;21001;-83
2022/08/01 03:15:18;;;;;;;3.45;1.70;;;;;;;13.49;100.00;96341.09;1680105;84;21395;-85
2022/08/01 03:17:44;;;;;;;2.70;1.85;;;;;;;13.48;100.00;96340.80;1677784;84;21059;-85
2022/08/01 03:20:12;;;;;;;2.52;1.72;;;;;;;13.47;100.00;96337.89;1676915;84;21042;-85
2022/08/01 03:22:38;;;;;;;2.58;1.75;;;;;;;13.44;100.00;96337.80;1680886;84;21010;-84
2022/08/01 03:25:06;;;;;;;4.60;2.00;;;;;;;13.42;100.00;96337.19;1677170;84;21443;-84
2022/08/01 03:27:31;;;;;;;3.72;1.90;;;;;;;13.41;100.00;96341.31;1678598;83;21053;-83
2022/08/01 03:29:57;;;;;;;7.20;2.17;;;;;;;13.35;100.00;96336.40;1678488;83;20999;-83
2022/08/01 03:32:25;;;;;;;3.95;1.92;;;;;;;13.39;100.00;96342.02;1678674;84;22341;-85
2022/08/01 03:34:51;;;;;;;3.50;1.72;;;;;;;13.42;100.00;96344.22;1682193;84;21002;-83
2022/08/01 03:37:33;;;;;;;6.10;1.75;;;;;;;13.42;100.00;96345.02;1679156;84;21039;-83
2022/08/01 03:40:25;;;;;;;5.05;1.72;;;;;;;13.42;100.00;96340.30;1678270;84;21006;-85
2022/08/01 03:42:59;;;;;;;4.95;1.72;;;;;;;13.42;100.00;96340.30;1676504;84;21099;-85
2022/08/01 03:45:30;;;;;;;3.05;1.55;;;;;;;13.40;100.00;96339.20;1674713;84;21512;-83
2022/08/01 03:48:03;;;;;;;3.83;1.87;;;;;;;13.39;100.00;96339.41;1679561;83;21060;-83
2022/08/01 03:50:30;;;;;;;3.02;2.00;;;;;;;13.35;100.00;96336.40;1687510;83;21135;-86
2022/08/01 03:52:57;;;;;;;3.37;1.40;;;;;;;13.35;100.00;96342.13;1687961;83;21016;-86
2022/08/01 03:55:23;;;;;;;3.77;1.40;;;;;;;13.33;100.00;96346.20;1684160;84;21086;-83
2022/08/01 03:57:49;;;;;;;5.28;1.50;;;;;;;13.32;100.00;96343.80;1688904;83;21115;-83
2022/08/01 04:00:18;;;;;;;2.12;1.55;;;;;;;13.29;100.00;96345.00;1689221;83;20963;-85
2022/08/01 04:02:42;;;;;;;3.55;1.50;;;;;;;13.29;100.00;96349.42;1686690;83;20964;-86
2022/08/01 04:05:09;;;;;;;2.58;1.20;;;;;;;13.28;100.00;96349.92;1688439;84;20944;-86
2022/08/01 04:07:43;;;;;;;3.33;1.20;;;;;;;13.27;100.00;96353.53;1685534;83;21063;-84
2022/08/01 04:10:09;;;;;;;1.87;1.20;;;;;;;13.26;100.00;96353.23;1688160;83;21052;-83
2022/08/01 04:12:34;;;;;;;1.92;1.20;;;;;;;13.25;100.00;96351.63;1686399;83;21066;-83
2022/08/01 04:15:00;;;;;;;3.72;1.27;;;;;;;13.25;100.00;96352.13;1686100;83;21039;-84
2022/08/01 04:17:26;;;;;;;2.40;1.12;;;;;;;13.24;100.00;96353.14;1684668;83;21005;-84
2022/08/01 04:19:51;;;;;;;4.12;1.40;;;;;;;13.22;100.00;96350.73;1686720;83;21062;-84
2022/08/01 04:22:17;;;;;;;1.72;1.22;;;;;;;13.21;100.00;96358.26;1685389;83;21049;-83
2022/08/01 04:24:48;;;;;;;3.10;1.45;;;;;;;13.20;100.00;96358.76;1686780;83;21017;-86
2022/08/01 04:27:17;;;;;;;2.60;1.10;;;;;;;13.20;100.00;96353.54;1688936;83;21470;-84
2022/08/01 04:29:46;;;;;;;2.00;1.25;;;;;;;13.20;100.00;96356.15;1683260;83;21349;-84
2022/08/01 04:32:12;;;;;;;3.27;1.10;;;;;;;13.23;100.00;96356.75;1684237;83;20970;-84
2022/08/01 04:34:39;;;;;;;3.75;1.17;;;;;;;13.23;100.00;96354.94;1688636;83;21045;-84
2022/08/01 04:37:05;;;;;;;2.77;1.22;;;;;;;13.24;100.00;96352.64;1686394;83;21015;-83
2022/08/01 04:39:31;;;;;;;1.98;0.95;;;;;;;13.23;100.00;96352.34;1686357;83;20972;-84
2022/08/01 04:41:58;;;;;;;3.95;1.45;;;;;;;13.23;100.00;96349.73;1687696;83;21572;-85
2022/08/01 04:44:24;;;;;;;1.52;1.20;;;;;;;13.22;100.00;96353.34;1685581;83;21057;-85
2022/08/01 04:46:50;;;;;;;2.98;1.27;;;;;;;13.23;100.00;96351.03;1683891;83;21612;-83
2022/08/01 04:49:16;;;;;;;2.12;1.35;;;;;;;13.23;100.00;96352.84;1686111;83;21422;-85
2022/08/01 04:51:57;;;;;;;3.77;1.37;;;;;;;13.24;100.00;96354.44;1695609;83;21102;-84
2022/08/01 04:54:21;;;;;;;3.35;1.37;;;;;;;13.26;100.00;96357.16;1655888;85;21041;-85
2022/08/01 04:56:47;;;;;;;3.08;1.20;;;;;;;13.27;100.00;96357.95;1660788;84;21124;-85
2022/08/01 05:01:57;;;;;;;1.98;1.30;;;;;;;13.30;100.00;96357.05;1645521;85;21414;-84
2022/08/01 05:04:23;;;;;;;2.70;1.27;;;;;;;13.34;100.00;96355.67;1646498;85;20952;-85
2022/08/01 05:06:49;;;;;;;2.62;1.20;;;;;;;13.42;100.00;96354.16;1646823;85;21010;-84
2022/08/01 05:09:15;;;;;;;6.60;1.12;;;;;;;13.53;100.00;96361.91;1646180;85;21007;-84
2022/08/01 05:11:41;;;;;;;2.52;1.10;;;;;;;13.62;100.00;96364.59;1661652;85;21073;-85
2022/08/01 05:14:07;;;;;;;1.30;1.07;;;;;;;13.66;100.00;96362.38;1654761;85;21045;-85
2022/08/01 05:16:33;;;;;;;2.27;1.10;;;;;;;13.73;100.00;96366.62;1655367;85;21259;-83
2022/08/01 05:18:58;;;;;;;4.83;0.88;;;;;;;13.80;100.00;96363.98;1656191;85;21049;-84
2022/08/01 05:21:24;;;;;;;2.72;1.45;;;;;;;13.86;100.00;96372.34;1657670;85;22114;-83
2022/08/01 05:23:50;;;;;;;3.95;1.00;;;;;;;13.88;100.00;96372.94;1655357;85;21025;-87
2022/08/01 05:26:15;;;;;;;2.65;1.20;;;;;;;13.89;100.00;96366.70;1653982;85;21025;-83
2022/08/01 05:28:42;;;;;;;2.83;0.95;;;;;;;13.92;100.00;96367.60;1657871;85;22004;-84
2022/08/01 05:31:07;;;;;;;3.70;1.07;;;;;;;13.97;100.00;96370.91;1656662;85;21100;-85
2022/08/01 05:33:33;;;;;;;2.83;1.02;;;;;;;14.03;100.00;96370.11;1656719;85;21104;-83
2022/08/01 05:35:59;;;;;;;7.33;1.10;;;;;;;14.07;100.00;96369.49;1656795;85;21404;-83
2022/08/01 05:38:24;;;;;;;2.52;1.00;;;;;;;14.11;100.00;96365.97;1659558;85;20992;-85
2022/08/01 05:40:50;;;;;;;3.98;1.22;;;;;;;14.17;100.00;96367.78;1659623;85;21061;-86
2022/08/01 05:43:16;;;;;;;3.30;1.65;;;;;;;14.21;100.00;96368.17;1659979;86;20970;-86
2022/08/01 05:45:42;;;;;;;4.95;1.70;;;;;;;14.25;100.00;96369.36;1690759;83;21091;-86
2022/08/01 05:48:08;;;;;;;2.08;1.07;;;;;;;14.29;100.00;96370.55;1693957;83;21002;-84
2022/08/01 05:50:34;;;;;;;3.25;1.25;;;;;;;14.32;100.00;96369.66;1688225;83;21103;-84
2022/08/01 05:53:01;;;;;;;4.42;1.30;;;;;;;14.35;100.00;96362.70;1684217;84;21031;-84
2022/08/01 05:55:27;;;;;;;3.98;1.40;;;;;;;14.38;100.00;96364.91;1687109;83;21022;-83
2022/08/01 05:57:52;;;;;;;4.50;1.10;;;;;;;14.41;100.00;96366.30;1681561;83;21340;-86
2022/08/01 06:00:19;;;;;;;2.80;1.32;;;;;;;14.43;100.00;96369.51;1654079;85;21019;-86
2022/08/01 06:02:44;;;;;;;1.90;1.05;;;;;;;14.47;100.00;96367.31;1652904;85;20986;-84
2022/08/01 06:05:10;;;;;;;2.27;1.20;;;;;;;14.54;100.00;96373.34;1655932;85;21058;-83
2022/08/01 06:07:38;;;;;;;3.62;1.12;;;;;;;14.60;100.00;96373.81;1668624;84;21118;-84
2022/08/01 06:10:05;;;;;;;4.10;1.30;;;;;;;14.63;100.00;96378.11;1684635;83;21429;-84
2022/08/01 06:12:33;;;;;;;2.75;1.25;;;;;;;14.67;100.00;96377.22;1686195;84;21358;-85
2022/08/01 06:14:59;;;;;;;2.98;1.37;;;;;;;14.71;100.00;96376.59;1686148;83;20952;-83
2022/08/01 06:17:25;;;;;;;3.45;1.35;;;;;;;14.77;100.00;96375.45;1687490;83;21805;-86
2022/08/01 06:19:50;;;;;;;2.00;1.15;;;;;;;14.80;100.00;96377.14;1686893;83;21122;-84
2022/08/01 06:22:16;;;;;;;1.40;1.22;;;;;;;14.85;100.00;96373.41;1686552;83;21430;-86
2022/08/01 06:24:44;;;;;;;2.35;1.20;;;;;;;14.90;100.00;96378.02;1686552;83;20968;-86
2022/08/01 06:27:09;;;;;;;3.92;1.30;;;;;;;14.96;100.00;96379.78;1665029;84;20984;-85
2022/08/01 06:29:35;;;;;;;2.85;1.40;;;;;;;15.01;100.00;96374.24;1678234;84;21390;-85
2022/08/01 06:32:01;;;;;;;3.52;1.62;;;;;;;15.10;100.00;96381.83;1685083;84;21016;-85
2022/08/01 06:34:27;;;;;;;2.80;1.50;;;;;;;15.18;100.00;96376.37;1667177;83;21005;-86
2022/08/01 06:36:52;;;;;;;2.05;1.47;;;;;;;15.25;100.00;96383.16;1685468;84;21367;-86
2022/08/01 06:39:18;;;;;;;3.67;1.70;;;;;;;15.33;100.00;96386.05;1687357;83;20966;-85
2022/08/01 06:41:46;;;;;;;1.85;1.50;;;;;;;15.39;100.00;96390.42;1682504;83;21086;-82
2022/08/01 06:44:12;;;;;;;4.58;1.80;;;;;;;15.46;100.00;96389.89;1667340;83;21061;-82
2022/08/01 06:46:38;;;;;;;6.15;2.12;;;;;;;15.53;100.00;96395.87;1680093;83;21100;-83
2022/08/01 06:49:04;;;;;;;2.67;1.65;;;;;;;15.59;100.00;96389.80;1681112;83;21097;-83
2022/08/01 06:51:30;;;;;;;3.10;1.80;;;;;;;15.67;100.00;96393.99;1668779;84;21484;-83
2022/08/01 06:53:56;;;;;;;3.20;2.10;;;;;;;15.73;100.00;96394.44;1665652;85;21011;-84
2022/08/01 06:56:22;;;;;;;2.95;1.40;;;;;;;15.80;100.00;96394.41;1667325;85;21395;-83
2022/08/01 06:58:52;;;;;;;1.70;1.52;;;;;;;15.86;100.00;96395.66;1639161;86;20999;-83
2022/08/01 07:01:18;;;;;;;3.85;1.50;;;;;;;15.95;100.00;96394.09;1663198;84;21005;-83
2022/08/01 07:03:44;;;;;;;2.27;1.80;;;;;;;16.04;100.00;96400.64;1670552;84;21027;-83
2022/08/01 07:06:10;;;;;;;4.03;1.75;;;;;;;16.10;100.00;96394.53;1652463;84;21115;-82
2022/08/01 07:08:36;;;;;;;3.50;1.47;;;;;;;16.14;100.00;96388.66;1664482;84;21058;-84
2022/08/01 07:11:03;;;;;;;2.15;1.82;;;;;;;16.20;100.00;96391.72;1669102;84;21077;-84
2022/08/01 07:13:30;;;;;;;2.85;1.70;;;;;;;16.28;100.00;96385.41;1665783;84;20995;-83
2022/08/01 07:15:56;;;;;;;4.17;1.67;;;;;;;16.35;100.00;96385.33;1648727;85;20977;-84
2022/08/01 07:18:22;;;;;;;2.75;1.50;;;;;;;16.40;100.00;96388.09;1661494;85;21364;-83
2022/08/01 07:20:49;;;;;;;1.98;1.75;;;;;;;16.47;100.00;96386.21;1652806;85;21119;-83
2022/08/01 07:23:15;;;;;;;2.25;1.50;;;;;;;16.53;100.00;96387.16;1659200;85;21094;-84
2022/08/01 07:25:41;;;;;;;3.00;1.30;;;;;;;16.61;100.00;96381.63;1660571;85;21060;-84
2022/08/01 07:28:07;;;;;;;5.28;1.60;;;;;;;16.69;100.00;96383.45;1654310;84;21049;-83
2022/08/01 07:30:32;;;;;;;2.72;1.47;;;;;;;16.78;100.00;96379.53;1649670;85;20994;-83
2022/08/01 07:32:58;;;;;;;3.92;1.50;;;;;;;16.87;100.00;96376.59;1653207;85;20949;-83
2022/08/01 07:35:24;;;;;;;5.70;1.57;;;;;;;16.98;100.00;96377.16;1675500;84;21047;-83
2022/08/01 07:37:50;;;;;;;1.42;1.32;;;;;;;17.05;100.00;96377.35;1669555;85;20959;-82
2022/08/01 07:40:17;;;;;;;2.00;1.60;;;;;;;17.13;100.00;96385.95;1660412;85;21043;-83
2022/08/01 07:42:44;;;;;;;2.58;1.62;;;;;;;17.24;100.00;96379.92;1666797;85;21480;-83
2022/08/01 07:45:11;;;;;;;2.72;1.60;;;;;;;17.37;100.00;96373.19;1662355;85;21046;-82
2022/08/01 07:47:37;;;;;;;2.62;2.12;;;;;;;17.51;100.00;96375.91;1661603;85;21127;-82
2022/08/01 07:50:03;;;;;;;3.12;1.80;;;;;;;17.63;100.00;96376.73;1669526;85;21070;-83
2022/08/01 07:52:30;;;;;;;2.85;2.42;;;;;;;17.76;100.00;96378.39;1659118;85;21051;-83
2022/08/01 07:54:57;;;;;;;4.42;1.92;;;;;;;17.90;100.00;96370.58;1660959;85;20995;-84
2022/08/01 07:57:23;;;;;;;4.53;2.00;;;;;;;18.06;100.00;96374.84;1662441;85;21006;-85
2022/08/01 07:59:49;;;;;;;3.42;1.87;;;;;;;18.19;100.00;96372.79;1647949;85;20987;-84
2022/08/01 08:02:15;;;;;;;4.78;2.42;;;;;;;18.31;99.87;96378.05;1663116;85;20983;-83
2022/08/01 08:04:41;;;;;;;2.50;2.15;;;;;;;18.45;99.07;96379.92;1656640;85;20988;-84
2022/08/01 08:07:07;;;;;;;2.98;2.10;;;;;;;18.56;97.14;96375.17;1663470;85;20991;-83
2022/08/01 08:09:32;;;;;;;3.12;2.22;;;;;;;18.69;98.83;96375.44;1661123;85;21345;-81
2022/08/01 08:11:58;;;;;;;3.25;2.30;;;;;;;18.78;94.67;96378.80;1662880;85;20974;-81
2022/08/01 08:14:24;;;;;;;2.70;2.47;;;;;;;18.87;92.77;96371.32;1657469;85;20919;-81
2022/08/01 08:16:50;;;;;;;3.60;2.27;;;;;;;19.01;93.90;96373.97;1639624;85;20986;-82
2022/08/01 08:19:15;;;;;;;3.37;2.42;;;;;;;19.14;90.66;96351.83;1662800;85;21358;-82
2022/08/01 08:21:41;;;;;;;3.20;2.70;;;;;;;19.30;91.72;96376.60;1661130;85;21046;-82
2022/08/01 08:24:20;;;;;;;3.27;2.70;;;;;;;19.47;89.82;96381.37;1666530;85;20996;-82
2022/08/01 08:26:54;;;;;;;3.45;2.42;;;;;;;19.64;90.91;96382.23;1659323;85;21008;-82
2022/08/01 08:29:21;;;;;;;3.37;2.40;;;;;;;19.87;88.50;96385.77;1658678;85;21069;-82
2022/08/01 08:31:47;;;;;;;4.83;2.65;;;;;;;20.05;89.95;96388.16;1654598;85;21026;-81
2022/08/01 08:34:13;;;;;;;3.80;2.50;;;;;;;20.23;89.38;96397.13;1633528;86;21388;-83
2022/08/01 08:36:38;;;;;;;3.27;2.58;;;;;;;20.36;86.08;96395.47;1635538;86;21048;-82
2022/08/01 08:39:04;;;;;;;4.12;2.87;;;;;;;20.51;87.59;96396.23;1656235;85;21501;-81
2022/08/01 08:41:32;;;;;;;4.00;2.47;;;;;;;20.68;85.50;96396.19;1664731;85;21066;-81
2022/08/01 08:43:58;;;;;;;3.75;2.80;;;;;;;20.73;83.58;96402.05;1642539;85;21434;-81
2022/08/01 08:46:26;;;;;;;2.80;2.52;;;;;;;20.83;84.63;96402.19;1664063;85;21011;-81
2022/08/01 08:48:52;;;;;;;3.80;2.77;;;;;;;20.99;83.59;96403.96;1668186;85;21390;-82
2022/08/01 08:51:17;;;;;;;5.15;2.62;;;;;;;21.09;83.06;96407.22;1664570;85;21098;-81
2022/08/01 08:53:44;;;;;;;3.15;2.50;;;;;;;21.23;83.22;96410.55;1683739;83;21028;-81
2022/08/01 08:56:12;;;;;;;3.67;3.10;;;;;;;21.40;82.58;96408.38;1692174;83;21039;-83
2022/08/01 08:58:38;;;;;;;3.92;2.90;;;;;;;21.57;82.25;96401.14;1684738;84;20999;-82
2022/08/01 09:01:06;;;;;;;2.70;2.50;;;;;;;21.80;80.48;96407.44;1682077;83;21029;-83
2022/08/01 09:03:33;;;;;;;3.45;2.72;;;;;;;21.85;80.60;96414.61;1676874;83;21037;-82
2022/08/01 09:05:59;;;;;;;2.95;2.62;;;;;;;21.94;80.10;96411.77;1683178;83;21007;-83
2022/08/01 09:08:25;;;;;;;3.50;3.02;;;;;;;22.07;78.26;96413.22;1682894;83;20982;-82
2022/08/01 09:10:50;;;;;;;4.47;2.45;;;;;;;22.22;78.64;96419.15;1677143;83;21045;-83
2022/08/01 09:13:16;;;;;;;3.50;2.45;;;;;;;22.30;77.04;96422.66;1672197;83;21026;-85
2022/08/01 09:15:53;;;;;;;3.15;2.20;;;;;;;22.37;75.06;96427.20;1676278;83;20973;-84
2022/08/01 09:18:28;;;;;;;2.65;2.35;;;;;;;22.31;79.24;96420.28;1688102;83;21688;-85
2022/08/01 09:21:22;;;;;;;4.12;2.70;;;;;;;22.41;76.43;96425.09;1680912;83;21067;-86
2022/08/01 09:23:53;;;;;;;4.25;2.90;;;;;;;22.49;77.53;96419.86;1684636;83;21004;-85
2022/08/01 09:26:32;;;;;;;4.45;2.98;;;;;;;22.49;76.23;96421.19;1682829;83;21019;-85
2022/08/01 09:29:02;;;;;;;2.70;1.92;;;;;;;22.56;75.36;96421.74;1679416;84;21061;-86
2022/08/01 09:31:28;;;;;;;4.47;3.17;;;;;;;22.63;75.12;96415.71;1678832;83;20988;-87
2022/08/01 09:33:58;;;;;;;3.75;2.85;;;;;;;22.68;72.58;96419.70;1681273;83;21041;-85
2022/08/01 09:36:26;;;;;;;3.02;2.72;;;;;;;22.68;73.11;96421.55;1680732;83;21031;-86
2022/08/01 09:38:54;;;;;;;4.12;2.60;;;;;;;22.71;74.27;96413.88;1685939;83;21045;-85
2022/08/01 09:41:30;;;;;;;3.60;2.87;;;;;;;22.71;71.90;96417.86;1683276;83;21061;-85
2022/08/01 09:43:57;;;;;;;2.37;2.17;;;;;;;22.69;72.32;96417.84;1680732;84;20960;-85
2022/08/01 09:46:22;;;;;;;3.40;2.52;;;;;;;22.77;71.70;96422.11;1683571;83;21039;-86
2022/08/01 09:49:03;;;;;;;3.95;2.27;;;;;;;22.83;72.25;96424.84;1685673;83;21020;-87
2022/08/01 09:51:37;;;;;;;3.83;2.63;;;;;;;22.92;71.65;96424.59;1675737;84;21106;-86
2022/08/01 09:54:05;;;;;;;4.47;2.30;;;;;;;22.98;72.30;96421.72;1650172;85;21234;-86
2022/08/01 09:56:39;;;;;;;3.37;2.45;;;;;;;23.02;72.24;96422.80;1638417;85;21008;-86
2022/08/01 09:59:05;;;;;;;3.20;2.50;;;;;;;23.04;71.16;96425.18;1652588;85;21032;-85
2022/08/01 10:01:49;;;;;;;3.45;2.62;;;;;;;23.01;73.59;96419.08;1658318;85;21055;-87
2022/08/01 10:04:20;;;;;;;2.72;2.50;;;;;;;22.97;68.68;96430.73;1663105;85;20948;-85
2022/08/01 10:06:52;;;;;;;3.17;2.50;;;;;;;22.91;68.05;96432.27;1648051;85;21052;-85
2022/08/01 10:09:30;;;;;;;2.33;2.05;;;;;;;22.85;69.78;96429.34;1660095;85;21002;-86
2022/08/01 10:11:56;;;;;;;3.05;2.75;;;;;;;22.76;69.61;96430.32;1659277;85;20984;-87
2022/08/01 10:14:26;;;;;;;3.33;2.45;;;;;;;22.72;69.10;96434.02;1651071;85;21069;-85
2022/08/01 10:16:53;;;;;;;3.52;2.95;;;;;;;22.69;69.40;96434.53;1651363;85;21076;-85
2022/08/01 10:19:22;;;;;;;3.72;3.30;;;;;;;22.71;70.44;96435.07;1650658;85;21328;-87
2022/08/01 10:21:52;;;;;;;4.12;3.42;;;;;;;22.73;69.28;96436.93;1652759;85;21010;-86
2022/08/01 10:24:19;;;;;;;3.33;3.05;;;;;;;22.74;70.46;96439.85;1659286;85;20984;-86
2022/08/01 10:26:45;;;;;;;4.10;2.95;;;;;;;22.74;69.90;96439.05;1663556;85;21014;-85
2022/08/01 10:29:11;;;;;;;3.72;2.87;;;;;;;22.71;72.16;96435.07;1631179;85;20956;-85
2022/08/01 10:31:37;;;;;;;5.35;3.33;;;;;;;22.72;71.28;96440.64;1656943;85;21393;-85
2022/08/01 10:34:03;;;;;;;3.72;3.10;;;;;;;22.74;70.89;96439.85;1663693;85;21090;-85
2022/08/01 10:36:28;;;;;;;4.65;3.50;;;;;;;22.72;68.97;96442.49;1660812;85;21090;-85
2022/08/01 10:38:55;;;;;;;4.33;3.58;;;;;;;22.74;70.08;96441.70;1666534;85;21312;-87
2022/08/01 10:41:21;;;;;;;3.87;3.27;;;;;;;22.83;69.66;96440.73;1658865;85;20979;-87
2022/08/01 10:43:46;;;;;;;3.80;3.50;;;;;;;22.92;67.56;96439.16;1654189;85;21368;-87
2022/08/01 10:46:12;;;;;;;4.00;3.33;;;;;;;22.97;68.55;96446.63;1641976;85;21028;-85
2022/08/01 10:49:00;;;;;;;4.17;3.67;;;;;;;22.99;68.12;96443.72;1660393;85;21083;-86
2022/08/01 10:51:26;;;;;;;4.60;3.72;;;;;;;23.03;66.94;96442.14;1658739;84;21083;-87
2022/08/01 10:53:53;;;;;;;4.03;3.62;;;;;;;23.02;67.97;96446.64;1654823;85;20983;-88
2022/08/01 10:56:19;;;;;;;4.58;3.75;;;;;;;23.03;67.71;96444.79;1677876;83;21357;-85
2022/08/01 10:58:46;;;;;;;4.70;4.30;;;;;;;23.06;67.37;96441.09;1679796;83;21000;-87
2022/08/01 11:01:21;;;;;;;5.00;4.45;;;;;;;23.14;67.28;96445.64;1673869;84;21120;-88
2022/08/01 11:04:02;;;;;;;5.37;4.53;;;;;;;23.19;67.94;96443.79;1673252;84;21094;-85
2022/08/01 11:06:34;;;;;;;;;;;;;;;23.27;68.00;96444.63;1675500;84;21115;-86
2022/08/01 11:09:21;;;;;;;4.80;4.37;;;;;;;23.38;68.21;96440.66;1672893;83;20145;-85
2022/08/01 11:12:07;;;;;;;4.45;4.05;;;;;;;23.45;68.34;96438.58;1673312;84;21059;-87
2022/08/01 11:14:33;;;;;;;4.25;3.95;;;;;;;23.46;67.68;96435.66;1671630;84;21379;-87
2022/08/01 11:17:49;;;;;;;4.87;3.67;;;;;;;23.55;68.59;96435.39;1679139;83;21028;-86
2022/08/01 11:20:13;;;;;;;4.75;4.35;;;;;;;23.56;67.59;96436.19;1664876;83;21463;-87
2022/08/01 11:23:04;;;;;;;6.08;4.33;;;;;;;23.48;65.98;96444.67;1680548;84;22054;-87
2022/08/01 11:25:45;;;;;;;5.75;4.47;;;;;;;23.35;66.52;96441.98;1678614;84;21040;-87
2022/08/01 11:28:23;;;;;;;6.92;4.60;;;;;;;23.41;68.00;96442.78;1651955;85;21007;-85
2022/08/01 11:30:56;;;;;;;4.65;4.03;;;;;;;23.41;66.42;96440.13;1624490;86;21075;-85
2022/08/01 11:33:47;;;;;;;5.70;4.35;;;;;;;23.39;67.05;96440.92;1641880;85;21016;-87
2022/08/01 11:36:19;;;;;;;6.17;4.83;;;;;;;23.41;67.78;96441.45;1649092;85;21459;-88
2022/08/01 11:39:06;;;;;;;5.83;4.67;;;;;;;23.39;67.01;96440.92;1650656;85;21146;-86
2022/08/01 11:41:35;;;;;;;6.03;4.30;;;;;;;23.42;68.54;96432.45;1651492;85;21413;-85